Reddick, Illinois
Current Conditions -  °F | °C
As of 2:35 PM on Saturday 25 Oct 2014 (Local Time) from KIKK Reporting Station
Clear Clear  
Wind Chill: 72°   Ceiling: Unl
Heat Index: 72°   Visibility: 10mi
Dew Point: 46°   Wind: 13mph
Humidity: 39%   Direction: 300°WNW
Pressure: 29.95"   Gusts: 17mph
Location:  41.1°N, 88.25°W
Report Text: KIKK 251935Z AUTO 30011G15KT 10SM CLR 22/08 A2995 RMK AO2 T02240077
Loading
Personal Weather Stations






























Interactive Weather Map New forecast layout! Learn more

10-Day Weather Forecast

Advertisements
Track Severe Weather on mobile